createdAt,value
2018-06-19T02:26:25.835Z,8.93
2018-06-19T02:28:55.477Z,9.17
2018-06-19T02:31:24.532Z,8.70
2018-06-19T02:33:53.509Z,8.70
2018-06-19T02:36:23.114Z,8.83
2018-06-19T02:38:52.982Z,7.93
2018-06-19T02:41:21.922Z,8.90
2018-06-19T02:43:50.889Z,8.40
2018-06-19T02:46:19.832Z,8.53
2018-06-19T02:48:48.725Z,9.73
2018-06-19T02:51:18.544Z,8.87
2018-06-19T02:53:47.540Z,8.67
2018-06-19T02:56:16.409Z,8.07
2018-06-19T02:58:45.852Z,8.93
2018-06-19T03:01:14.737Z,8.80
2018-06-19T03:03:43.682Z,9.60
2018-06-19T03:06:12.580Z,8.67
2018-06-19T03:08:41.492Z,8.87
2018-06-19T03:11:10.541Z,9.47
2018-06-19T03:13:39.845Z,8.27
2018-06-19T03:16:08.917Z,8.37
2018-06-19T03:18:37.847Z,7.93
2018-06-19T03:21:06.792Z,9.47
2018-06-19T03:23:35.748Z,9.13
2018-06-19T03:26:04.675Z,8.83
2018-06-19T03:28:33.959Z,8.50
2018-06-19T03:31:02.983Z,9.07
2018-06-19T03:33:32.479Z,9.67
2018-06-19T03:36:01.421Z,8.00
2018-06-19T03:38:30.345Z,8.23
2018-06-19T03:40:59.272Z,7.90
2018-06-19T03:43:28.492Z,8.00
2018-06-19T03:45:58.120Z,7.63
2018-06-19T03:48:28.476Z,7.80
2018-06-19T03:50:57.836Z,7.23
2018-06-19T03:53:26.873Z,6.97
2018-06-19T03:55:55.896Z,7.53
2018-06-19T03:58:24.794Z,7.60
2018-06-19T04:00:53.760Z,8.63
2018-06-19T04:03:22.684Z,7.50
2018-06-19T04:05:51.621Z,7.97
2018-06-19T04:08:21.126Z,7.50
2018-06-19T04:10:50.105Z,8.57
2018-06-19T04:13:19.028Z,7.60
2018-06-19T04:15:53.737Z,7.43
2018-06-19T04:18:22.665Z,7.80
2018-06-19T04:20:51.572Z,8.33
2018-06-19T04:36:21.151Z,8.10
2018-06-19T04:38:50.635Z,7.10
2018-06-19T04:41:19.566Z,7.83
2018-06-19T04:43:48.486Z,7.10
2018-06-19T04:46:17.376Z,7.37
2018-06-19T04:48:46.742Z,7.27
2018-06-19T04:51:15.991Z,7.93
2018-06-19T04:53:44.928Z,7.57
2018-06-19T04:56:13.862Z,7.93
2018-06-19T04:58:42.953Z,7.10
2018-06-19T05:01:12.095Z,7.03
2018-06-19T05:03:42.509Z,8.53
2018-06-19T05:06:11.496Z,7.63
2018-06-19T05:08:41.016Z,8.80
2018-06-19T05:11:10.579Z,7.60
2018-06-19T05:13:39.500Z,8.70
2018-06-19T05:16:08.485Z,8.27
2018-06-19T05:18:37.525Z,8.07
2018-06-19T05:21:06.539Z,8.63
2018-06-19T05:23:35.461Z,8.17
2018-06-19T05:26:04.423Z,9.10
2018-06-19T05:38:19.111Z,8.37
2018-06-19T05:40:48.837Z,8.53
2018-06-19T05:43:17.990Z,9.27
2018-06-19T05:45:47.627Z,9.97
2018-06-19T05:48:16.666Z,8.77
2018-06-19T05:50:45.815Z,7.90
2018-06-19T05:53:14.759Z,8.83
2018-06-19T05:55:43.776Z,9.03
2018-06-19T05:58:12.743Z,8.37
2018-06-19T06:13:41.739Z,8.50
2018-06-19T06:16:11.577Z,7.93
2018-06-19T06:18:41.237Z,8.87
2018-06-19T06:21:11.027Z,9.43
2018-06-19T06:23:39.983Z,8.03
2018-06-19T06:26:08.953Z,8.37
2018-06-19T06:28:37.965Z,8.37
2018-06-19T06:31:07.769Z,7.97
2018-06-19T06:33:37.245Z,8.10
2018-06-19T06:36:07.423Z,7.83
2018-06-19T06:38:36.423Z,7.20
2018-06-19T06:41:05.437Z,7.27
2018-06-19T06:43:34.656Z,7.77
2018-06-19T06:46:03.815Z,8.07
2018-06-19T06:48:32.961Z,8.10
2018-06-19T06:51:01.913Z,7.57
2018-06-19T06:53:30.917Z,6.97
2018-06-19T06:55:59.833Z,7.30
2018-06-19T06:58:29.475Z,8.60
2018-06-19T07:00:58.431Z,8.67
2018-06-19T07:03:27.957Z,8.20
2018-06-19T07:05:56.996Z,8.33
2018-06-19T07:08:26.437Z,7.80
2018-06-19T07:10:55.469Z,7.30
2018-06-19T07:13:24.436Z,7.40
2018-06-19T07:15:53.442Z,7.10
2018-06-19T07:18:22.335Z,7.63
2018-06-19T07:23:37.523Z,7.30
2018-06-19T07:26:06.469Z,6.87
2018-06-19T07:28:35.384Z,7.40
2018-06-19T07:31:04.382Z,6.83
2018-06-19T07:33:33.383Z,7.40
2018-06-19T07:36:02.459Z,6.53
2018-06-19T07:38:31.518Z,6.70
2018-06-19T07:41:05.393Z,6.83
2018-06-19T07:43:35.350Z,6.37
2018-06-19T07:46:04.893Z,6.23
2018-06-19T07:48:33.996Z,5.50
2018-06-19T07:51:02.973Z,5.40
2018-06-19T07:53:31.935Z,5.53
2018-06-19T07:56:00.884Z,5.73
2018-06-19T07:58:29.761Z,4.97
2018-06-19T08:00:58.886Z,5.07
2018-06-19T08:03:28.285Z,5.57
2018-06-19T08:05:57.245Z,5.40
2018-06-19T08:08:26.189Z,5.07
2018-06-19T08:10:55.184Z,5.40
2018-06-19T08:13:24.118Z,4.80
2018-06-19T08:15:53.109Z,4.97
2018-06-19T08:18:22.020Z,4.97
2018-06-19T08:20:50.991Z,4.83
2018-06-19T08:23:19.933Z,4.20
2018-06-19T08:25:48.848Z,4.40
2018-06-19T08:28:18.792Z,4.37
2018-06-19T08:30:47.729Z,4.67
2018-06-19T08:33:22.254Z,4.17
2018-06-19T08:35:51.220Z,4.30
2018-06-19T08:38:20.196Z,3.83
2018-06-19T08:40:50.028Z,4.00
2018-06-19T08:43:19.433Z,3.47
2018-06-19T08:45:48.348Z,3.30
2018-06-19T08:48:17.356Z,3.70
2018-06-19T08:50:47.096Z,3.63
2018-06-19T08:53:16.004Z,4.27
2018-06-19T08:55:44.931Z,3.20
2018-06-19T08:58:13.858Z,3.23
2018-06-19T09:00:43.617Z,3.90
2018-06-19T09:03:18.878Z,3.00
2018-06-19T09:05:48.919Z,2.87
2018-06-19T09:08:17.843Z,3.63
2018-06-19T09:10:46.866Z,3.53
2018-06-19T09:13:16.367Z,3.80
2018-06-19T09:15:45.389Z,3.37
2018-06-19T09:18:14.293Z,3.33
2018-06-19T09:20:43.245Z,3.20
2018-06-19T09:23:13.126Z,3.63
2018-06-19T09:25:42.241Z,3.07
2018-06-19T09:28:11.141Z,2.90
2018-06-19T09:30:40.295Z,2.97
2018-06-19T09:33:09.224Z,2.83
2018-06-19T09:35:39.279Z,3.00
2018-06-19T09:38:08.210Z,2.87
2018-06-19T09:40:37.149Z,3.00
2018-06-19T09:43:11.691Z,3.17
2018-06-19T09:45:41.127Z,3.30
2018-06-19T09:48:10.054Z,3.20
2018-06-19T09:50:39.615Z,3.30
2018-06-19T09:53:08.651Z,3.20
2018-06-19T09:55:37.899Z,2.77
2018-06-19T09:58:06.887Z,2.77
2018-06-19T10:00:36.955Z,2.80
2018-06-19T10:03:11.753Z,3.23
2018-06-19T10:05:46.120Z,2.90
2018-06-19T10:08:15.235Z,2.50
2018-06-19T10:10:44.519Z,3.00
2018-06-19T10:13:13.543Z,2.20
2018-06-19T10:15:42.501Z,2.50
2018-06-19T10:18:11.418Z,3.00
2018-06-19T10:20:40.365Z,3.13
2018-06-19T10:23:09.395Z,3.20
2018-06-19T10:25:38.932Z,3.10
2018-06-19T10:28:07.906Z,3.57
2018-06-19T10:30:36.868Z,3.60
2018-06-19T10:33:06.377Z,2.80
2018-06-19T10:35:35.545Z,2.67
2018-06-19T10:38:04.555Z,2.87
2018-06-19T10:40:33.457Z,2.83
2018-06-19T10:43:02.378Z,2.93
2018-06-19T10:45:31.328Z,3.00
2018-06-19T10:48:00.935Z,2.70
2018-06-19T10:50:29.816Z,3.10
2018-06-19T10:52:58.736Z,2.80
2018-06-19T10:55:27.949Z,2.77
2018-06-19T10:57:57.506Z,2.97
2018-06-19T11:00:26.392Z,2.87
2018-06-19T11:02:55.319Z,2.70
2018-06-19T11:05:24.226Z,2.73
2018-06-19T11:07:53.264Z,2.93
2018-06-19T11:10:22.278Z,2.73
2018-06-19T11:12:51.253Z,2.60
2018-06-19T11:15:21.278Z,3.00
2018-06-19T11:17:52.560Z,2.87
2018-06-19T11:20:22.192Z,2.70
2018-06-19T11:22:51.963Z,2.93
2018-06-19T11:25:20.924Z,2.50
2018-06-19T11:27:49.924Z,2.80
2018-06-19T11:30:18.878Z,2.57
2018-06-19T11:32:47.796Z,2.93
2018-06-19T11:35:17.010Z,3.27
2018-06-19T11:37:45.952Z,2.60
2018-06-19T11:40:14.986Z,3.17
2018-06-19T11:55:43.959Z,2.80
2018-06-19T11:58:14.595Z,2.90
2018-06-19T12:00:43.553Z,3.33
2018-06-19T12:03:12.502Z,2.90
2018-06-19T12:05:41.742Z,2.93
2018-06-19T12:08:10.766Z,2.73
2018-06-19T12:10:39.739Z,2.53
2018-06-19T12:13:09.004Z,3.20
2018-06-19T12:15:37.865Z,2.70
2018-06-19T12:18:06.770Z,3.40
2018-06-19T12:20:36.320Z,2.43
2018-06-19T12:23:05.221Z,2.90
2018-06-19T12:25:34.176Z,2.67
2018-06-19T12:28:03.193Z,3.20
2018-06-19T12:30:32.929Z,3.00
2018-06-19T12:33:01.864Z,2.70
2018-06-19T12:35:30.736Z,2.63
2018-06-19T12:38:00.255Z,2.77
2018-06-19T12:40:29.147Z,2.60
2018-06-19T12:42:58.043Z,2.90
2018-06-19T12:45:27.171Z,2.93
2018-06-19T12:47:56.167Z,3.13
2018-06-19T12:50:39.747Z,3.00
2018-06-19T12:53:20.523Z,3.00
2018-06-19T12:56:01.411Z,2.67
2018-06-19T12:58:30.846Z,2.67
2018-06-19T13:00:59.747Z,3.07
2018-06-19T13:03:40.600Z,2.90
2018-06-19T13:06:20.796Z,2.63
2018-06-19T13:08:49.834Z,2.93
2018-06-19T13:11:20.065Z,2.93
2018-06-19T13:14:00.161Z,2.53
2018-06-19T13:16:40.417Z,3.13
2018-06-19T13:32:09.505Z,3.27
2018-06-19T13:34:38.700Z,3.30
2018-06-19T13:37:07.879Z,3.17
2018-06-19T13:39:37.916Z,3.37
2018-06-19T13:42:20.289Z,3.53
2018-06-19T13:45:01.783Z,3.73
2018-06-19T13:47:31.487Z,4.20
2018-06-19T13:50:00.664Z,3.33
2018-06-19T13:52:29.603Z,3.40
2018-06-19T13:55:09.943Z,3.20
2018-06-19T13:57:50.341Z,3.77
2018-06-19T14:00:22.328Z,3.30
2018-06-19T14:02:51.314Z,3.00
2018-06-19T14:05:20.899Z,3.20
2018-06-19T14:08:02.639Z,3.80
2018-06-19T14:10:45.456Z,3.47
2018-06-19T14:13:15.446Z,3.17
2018-06-19T14:15:50.616Z,3.27
2018-06-19T14:18:21.521Z,3.57
2018-06-19T14:20:50.495Z,3.00
2018-06-19T14:23:19.365Z,2.97
2018-06-19T14:25:48.268Z,3.03
2018-06-19T14:28:18.229Z,3.17
2018-06-19T14:30:47.129Z,2.93
2018-06-19T14:33:16.026Z,2.93
2018-06-19T14:35:44.976Z,3.40
2018-06-19T14:38:14.501Z,3.20
2018-06-19T14:40:43.791Z,3.33
2018-06-19T14:43:12.737Z,3.47
2018-06-19T14:45:41.618Z,3.40
2018-06-19T14:48:10.542Z,3.83
2018-06-19T14:50:39.463Z,3.13
2018-06-19T14:53:08.380Z,3.43
2018-06-19T14:55:37.270Z,3.13
2018-06-19T14:58:06.190Z,3.50
2018-06-19T15:00:35.082Z,3.30
2018-06-19T15:03:04.124Z,3.40
2018-06-19T15:05:33.077Z,3.03
2018-06-19T15:08:02.020Z,2.93
2018-06-19T15:10:30.960Z,3.33
2018-06-19T15:12:59.848Z,3.40
2018-06-19T15:15:29.084Z,3.67
2018-06-19T15:17:58.004Z,3.20
2018-06-19T15:20:27.792Z,3.50
2018-06-19T15:22:56.988Z,3.13
2018-06-19T15:25:26.584Z,3.67
2018-06-19T15:27:56.483Z,3.70
2018-06-19T15:30:25.460Z,3.83
2018-06-19T15:32:59.952Z,3.33
2018-06-19T15:35:34.484Z,3.73
2018-06-19T15:38:03.700Z,3.27
2018-06-19T15:40:32.634Z,3.60
2018-06-19T15:43:01.527Z,3.80
2018-06-19T15:45:30.500Z,3.97
2018-06-19T15:47:59.473Z,3.90
2018-06-19T15:50:28.661Z,3.67
2018-06-19T15:52:57.661Z,4.43
2018-06-19T15:55:27.260Z,4.03
2018-06-19T15:57:56.483Z,3.70
2018-06-19T16:00:25.760Z,3.17
2018-06-19T16:02:54.629Z,3.50
2018-06-19T16:05:23.736Z,3.30
2018-06-19T16:07:58.299Z,4.10
2018-06-19T16:10:27.373Z,3.77
2018-06-19T16:12:56.323Z,3.43
2018-06-19T16:15:26.263Z,3.50
2018-06-19T16:17:55.257Z,3.83
2018-06-19T16:20:30.709Z,3.20
2018-06-19T16:22:59.638Z,3.50
2018-06-19T16:25:28.756Z,3.73
2018-06-19T16:27:57.626Z,3.80
2018-06-19T16:30:26.961Z,3.63
2018-06-19T16:32:55.869Z,3.70
2018-06-19T16:35:24.751Z,4.00
2018-06-19T16:37:53.834Z,3.60
2018-06-19T16:40:22.841Z,4.20
2018-06-19T16:42:52.043Z,3.87
2018-06-19T16:45:21.099Z,3.47
2018-06-19T16:47:50.338Z,3.80
2018-06-19T16:50:19.259Z,3.53
2018-06-19T16:52:48.173Z,4.00
2018-06-19T16:55:17.359Z,4.20
2018-06-19T16:57:46.331Z,4.37
2018-06-19T17:00:15.245Z,4.20
2018-06-19T17:02:44.574Z,4.30
2018-06-19T17:05:13.566Z,5.00
2018-06-19T17:07:43.242Z,5.07
2018-06-19T17:10:13.348Z,5.90
2018-06-19T17:12:42.755Z,5.67
2018-06-19T17:15:11.941Z,5.63
2018-06-19T17:17:40.854Z,5.73
2018-06-19T17:20:09.769Z,6.50
2018-06-19T17:22:39.712Z,5.90
2018-06-19T17:25:08.630Z,6.23
2018-06-19T17:27:37.524Z,6.37
2018-06-19T17:30:06.578Z,6.50
2018-06-19T17:32:35.461Z,7.33
2018-06-19T17:35:04.381Z,7.40
2018-06-19T17:37:33.269Z,8.83
2018-06-19T17:40:02.207Z,9.80
2018-06-19T17:42:31.106Z,10.73
2018-06-19T17:45:00.011Z,10.83
2018-06-19T17:47:29.084Z,10.37
2018-06-19T17:49:57.959Z,9.80
2018-06-19T17:52:27.032Z,10.73
2018-06-19T17:54:55.922Z,9.77
2018-06-19T17:57:25.177Z,10.10
2018-06-19T17:59:54.429Z,9.23
2018-06-19T18:02:23.348Z,8.97
2018-06-19T18:04:52.256Z,9.93
2018-06-19T18:07:21.166Z,9.13
2018-06-19T18:09:50.106Z,9.43
2018-06-19T18:12:19.436Z,8.73
2018-06-19T18:14:48.645Z,8.73
2018-06-19T18:17:17.546Z,8.70
2018-06-19T18:19:46.475Z,8.23
2018-06-19T18:22:16.519Z,7.67
2018-06-19T18:24:45.395Z,7.57
2018-06-19T18:27:14.353Z,7.83
2018-06-19T18:29:43.257Z,7.60
2018-06-19T18:32:12.197Z,6.60
2018-06-19T18:34:41.527Z,6.97
2018-06-19T18:37:11.429Z,5.70
2018-06-19T18:39:40.674Z,6.33
2018-06-19T18:42:09.637Z,6.50
2018-06-19T18:44:38.565Z,6.37
2018-06-19T18:47:07.494Z,5.87
2018-06-19T18:49:36.446Z,6.10
2018-06-19T18:52:05.366Z,5.73
2018-06-19T18:54:34.323Z,5.57
2018-06-19T18:57:03.225Z,5.53
2018-06-19T18:59:32.137Z,5.70
2018-06-19T19:02:01.207Z,5.70
2018-06-19T19:04:30.077Z,5.00
2018-06-19T19:06:59.013Z,5.93
2018-06-19T19:09:27.944Z,5.37
2018-06-19T19:11:56.922Z,5.80
2018-06-19T19:14:27.281Z,5.73
2018-06-19T19:17:01.557Z,5.80
2018-06-19T19:19:30.509Z,5.97
2018-06-19T19:21:59.453Z,5.50
2018-06-19T19:24:28.345Z,5.47
2018-06-19T19:27:02.640Z,5.77
2018-06-19T19:29:36.857Z,5.27
2018-06-19T19:32:05.797Z,5.07
2018-06-19T19:34:34.663Z,5.10
2018-06-19T19:37:08.840Z,6.07
2018-06-19T19:39:37.789Z,5.37
2018-06-19T19:42:06.708Z,5.43
2018-06-19T19:44:35.919Z,5.63
2018-06-19T19:48:12.882Z,5.23
2018-06-19T19:50:42.057Z,6.27
2018-06-19T19:53:11.041Z,4.73
2018-06-19T19:55:45.149Z,5.40
2018-06-19T19:58:19.273Z,5.13
2018-06-19T20:00:48.263Z,6.13
2018-06-19T20:03:17.181Z,5.83
2018-06-19T20:05:46.117Z,7.47
2018-06-19T20:08:21.384Z,6.27
2018-06-19T20:10:51.290Z,7.23
2018-06-19T20:13:20.597Z,6.30
2018-06-19T20:15:49.964Z,6.87
2018-06-19T20:18:19.240Z,7.23
2018-06-19T20:20:48.234Z,6.63
2018-06-19T20:23:17.219Z,6.87
2018-06-19T20:25:46.114Z,6.20
2018-06-19T20:28:15.112Z,6.33
2018-06-19T20:30:44.069Z,6.83
2018-06-19T20:33:13.001Z,7.57
2018-06-19T20:35:42.012Z,7.20
2018-06-19T20:38:10.929Z,7.33
2018-06-19T20:40:39.850Z,6.93
2018-06-19T20:43:09.769Z,7.67
2018-06-19T20:45:38.726Z,6.93
2018-06-19T20:48:07.717Z,6.90
2018-06-19T20:50:37.695Z,6.73
2018-06-19T20:53:06.695Z,6.93
2018-06-19T20:55:35.614Z,6.00
2018-06-19T20:58:04.536Z,5.57
2018-06-19T21:00:33.490Z,5.27
2018-06-19T21:03:02.437Z,4.87
2018-06-19T21:05:31.339Z,4.67
2018-06-19T21:08:00.344Z,4.90
2018-06-19T21:10:29.369Z,4.87
2018-06-19T21:12:58.332Z,4.03
2018-06-19T21:15:27.396Z,4.37
2018-06-19T21:17:56.328Z,4.17
2018-06-19T21:20:25.620Z,4.27
2018-06-19T21:22:54.824Z,4.17
2018-06-19T21:25:23.964Z,4.67
2018-06-19T21:27:52.905Z,5.40
2018-06-19T21:30:21.817Z,5.63
2018-06-19T21:32:50.708Z,5.47
2018-06-19T21:35:19.728Z,5.00
2018-06-19T21:37:48.709Z,4.73
2018-06-19T21:40:17.576Z,5.17
2018-06-19T21:42:48.397Z,4.97
2018-06-19T21:45:18.718Z,5.10
2018-06-19T21:47:47.870Z,5.20
2018-06-19T21:50:16.934Z,4.37
2018-06-19T21:52:46.022Z,4.40
2018-06-19T21:55:14.934Z,4.73
2018-06-19T21:57:44.009Z,5.47
2018-06-19T22:00:13.040Z,4.80
2018-06-19T22:02:41.959Z,4.50
2018-06-19T22:05:10.896Z,4.27
2018-06-19T22:07:39.786Z,4.57
2018-06-19T22:10:08.338Z,4.43
2018-06-19T22:12:37.336Z,4.33
2018-06-19T22:15:06.232Z,4.33
2018-06-19T22:17:35.152Z,3.97
2018-06-19T22:20:04.089Z,4.10
2018-06-19T22:22:33.628Z,3.93
2018-06-19T22:25:02.521Z,4.80
2018-06-19T22:27:32.090Z,4.57
2018-06-19T22:30:01.013Z,4.00
2018-06-19T22:32:29.953Z,4.33
2018-06-19T22:34:58.987Z,3.90
2018-06-19T22:37:28.055Z,4.87
2018-06-19T22:39:56.966Z,4.73
2018-06-19T22:42:25.872Z,4.37
2018-06-19T22:44:55.142Z,4.23
2018-06-19T22:47:24.096Z,4.07
2018-06-19T22:49:53.006Z,4.57
2018-06-19T22:52:21.889Z,4.67
2018-06-19T22:54:50.803Z,5.43
2018-06-19T22:57:20.256Z,5.50
2018-06-19T22:59:49.426Z,6.00
2018-06-19T23:02:18.354Z,7.67
2018-06-19T23:04:47.328Z,9.27
2018-06-19T23:07:16.813Z,10.23
2018-06-19T23:09:45.709Z,9.47
2018-06-19T23:12:14.645Z,7.13
2018-06-19T23:14:43.904Z,6.60
2018-06-19T23:17:12.953Z,6.57
2018-06-19T23:19:41.917Z,6.47
2018-06-19T23:22:10.971Z,7.13
2018-06-19T23:24:39.925Z,6.20
2018-06-19T23:27:14.761Z,7.07
2018-06-19T23:29:43.749Z,7.20
2018-06-19T23:32:12.635Z,7.07
2018-06-19T23:34:41.547Z,6.33
2018-06-19T23:37:11.053Z,7.07
2018-06-19T23:39:39.968Z,7.73
2018-06-19T23:42:09.170Z,6.70
2018-06-19T23:44:38.249Z,6.80
2018-06-19T23:47:07.224Z,7.17
2018-06-19T23:49:37.215Z,7.53
2018-06-19T23:52:06.153Z,7.03
2018-06-19T23:54:35.109Z,7.83
2018-06-19T23:57:09.791Z,7.93
2018-06-19T23:59:44.342Z,7.07
